createdAt,value
2023-02-12T00:01:20.293Z,29.60
2023-02-12T00:03:23.206Z,31.88
2023-02-12T00:05:25.455Z,29.98
2023-02-12T00:07:30.218Z,31.45
2023-02-12T00:09:33.403Z,30.63
2023-02-12T00:11:35.890Z,29.30
2023-02-12T00:13:42.602Z,31.38
2023-02-12T00:15:45.278Z,29.40
2023-02-12T00:17:48.477Z,29.98
2023-02-12T00:19:50.198Z,29.95
2023-02-12T00:21:53.220Z,31.52
2023-02-12T00:23:55.074Z,30.65
2023-02-12T00:25:58.528Z,29.27
2023-02-12T00:28:02.988Z,27.77
2023-02-12T00:30:06.428Z,28.83
2023-02-12T00:32:08.545Z,31.00
2023-02-12T00:34:11.882Z,29.98
2023-02-12T00:36:16.289Z,30.15
2023-02-12T00:38:17.921Z,30.08
2023-02-12T00:40:20.622Z,29.27
2023-02-12T00:42:23.715Z,29.50
2023-02-12T00:44:27.957Z,29.75
2023-02-12T00:46:29.875Z,29.73
2023-02-12T00:48:31.970Z,30.95
2023-02-12T00:50:33.716Z,31.65
2023-02-12T00:52:35.437Z,29.73
2023-02-12T00:54:37.224Z,30.42
2023-02-12T00:56:39.276Z,30.10
2023-02-12T00:58:42.690Z,30.13
2023-02-12T01:00:47.413Z,31.60
2023-02-12T01:02:49.397Z,31.25
2023-02-12T01:04:51.213Z,30.60
2023-02-12T01:06:53.141Z,30.52
2023-02-12T01:08:54.877Z,30.90
2023-02-12T01:10:58.069Z,32.47
2023-02-12T01:12:59.728Z,30.45
2023-02-12T01:15:06.076Z,32.95
2023-02-12T01:17:08.136Z,32.38
2023-02-12T01:19:12.432Z,31.77
2023-02-12T01:21:18.098Z,31.80
2023-02-12T01:23:21.170Z,31.63
2023-02-12T01:25:23.039Z,30.65
2023-02-12T01:27:24.702Z,31.35
2023-02-12T01:29:28.245Z,32.55
2023-02-12T01:31:33.495Z,32.70
2023-02-12T01:33:35.695Z,33.60
2023-02-12T01:35:40.256Z,31.58
2023-02-12T01:37:42.501Z,30.05
2023-02-12T01:39:44.779Z,31.92
2023-02-12T01:41:49.197Z,30.50
2023-02-12T01:44:15.210Z,32.65
2023-02-12T01:46:16.853Z,28.80
2023-02-12T01:48:26.484Z,30.85
2023-02-12T01:50:35.966Z,28.67
2023-02-12T01:52:40.572Z,29.13
2023-02-12T01:54:43.272Z,29.95
2023-02-12T01:56:45.321Z,29.33
2023-02-12T01:58:50.429Z,30.40
2023-02-12T02:00:52.763Z,29.45
2023-02-12T02:02:58.389Z,31.58
2023-02-12T02:05:03.627Z,30.15
2023-02-12T02:07:07.093Z,31.02
2023-02-12T02:09:09.318Z,29.90
2023-02-12T02:11:10.945Z,32.42
2023-02-12T02:13:12.710Z,31.52
2023-02-12T02:15:14.544Z,31.58
2023-02-12T02:17:28.858Z,32.70
2023-02-12T02:19:50.477Z,30.33
2023-02-12T02:22:14.365Z,31.15
2023-02-12T02:24:45.268Z,31.83
2023-02-12T02:27:05.454Z,33.45
2023-02-12T02:29:55.702Z,29.80
2023-02-12T02:32:03.426Z,29.92
2023-02-12T02:34:11.389Z,31.95
2023-02-12T02:36:19.291Z,32.28
2023-02-12T02:38:29.250Z,32.17
2023-02-12T02:40:37.757Z,30.70
2023-02-12T02:42:44.641Z,31.63
2023-02-12T02:44:50.937Z,29.52
2023-02-12T02:46:53.977Z,29.88
2023-02-12T02:49:01.929Z,31.85
2023-02-12T02:51:08.313Z,31.58
2023-02-12T02:53:15.614Z,30.33
2023-02-12T02:55:20.267Z,31.05
2023-02-12T02:57:28.436Z,29.20
2023-02-12T02:59:35.228Z,30.10
2023-02-12T03:01:43.007Z,30.13
2023-02-12T03:03:49.690Z,29.98
2023-02-12T03:05:58.559Z,30.00
2023-02-12T03:08:06.543Z,30.33
2023-02-12T03:10:14.290Z,30.48
2023-02-12T03:12:21.383Z,30.08
2023-02-12T03:14:28.159Z,30.85
2023-02-12T03:16:33.416Z,30.02
2023-02-12T03:18:41.383Z,30.55
2023-02-12T03:20:47.396Z,33.25
2023-02-12T03:22:56.100Z,30.88
2023-02-12T03:25:03.517Z,28.50
2023-02-12T03:27:09.798Z,29.42
2023-02-12T03:29:12.362Z,28.05
2023-02-12T03:31:25.470Z,31.70
2023-02-12T03:33:34.716Z,27.17
2023-02-12T03:35:45.992Z,29.83
2023-02-12T03:37:56.823Z,29.95
2023-02-12T03:40:06.715Z,28.33
2023-02-12T03:42:13.482Z,29.30
2023-02-12T03:44:23.199Z,27.02
2023-02-12T03:46:34.683Z,30.45
2023-02-12T03:48:41.840Z,27.83
2023-02-12T03:50:49.748Z,30.17
2023-02-12T03:52:52.777Z,29.60
2023-02-12T03:54:54.469Z,29.63
2023-02-12T03:57:02.534Z,30.67
2023-02-12T03:59:13.374Z,31.65
2023-02-12T04:01:15.309Z,30.75
2023-02-12T04:03:16.924Z,28.33
2023-02-12T04:05:21.737Z,30.13
2023-02-12T04:07:23.323Z,30.10
2023-02-12T04:09:27.787Z,29.08
2023-02-12T04:11:39.967Z,27.85
2023-02-12T04:13:45.898Z,31.27
2023-02-12T04:16:05.226Z,28.48
2023-02-12T04:18:17.302Z,26.92
2023-02-12T04:20:27.566Z,28.33
2023-02-12T04:22:43.120Z,28.58
2023-02-12T04:24:55.201Z,26.02
2023-02-12T04:27:03.248Z,29.23
2023-02-12T04:29:17.786Z,28.13
2023-02-12T04:31:29.301Z,28.83
2023-02-12T04:33:38.943Z,28.98
2023-02-12T04:35:45.978Z,28.73
2023-02-12T04:38:08.256Z,29.67
2023-02-12T04:40:42.862Z,27.60
2023-02-12T04:45:05.642Z,27.20
2023-02-12T04:52:36.760Z,27.33
2023-02-12T04:54:53.783Z,27.48
2023-02-12T04:57:06.014Z,26.80
2023-02-12T04:59:11.121Z,26.77
2023-02-12T05:01:13.021Z,29.25
2023-02-12T05:03:14.616Z,28.75
2023-02-12T05:05:19.271Z,27.05
2023-02-12T05:07:20.926Z,29.45
2023-02-12T05:09:25.306Z,27.45
2023-02-12T05:11:41.042Z,27.75
2023-02-12T05:13:59.777Z,28.05
2023-02-12T05:18:46.512Z,28.60
2023-02-12T05:21:09.064Z,27.55
2023-02-12T05:23:13.605Z,26.55
2023-02-12T05:25:19.884Z,26.63
2023-02-12T05:27:43.142Z,27.20
2023-02-12T05:29:46.073Z,27.60
2023-02-12T05:32:03.182Z,27.88
2023-02-12T05:34:22.151Z,28.45
2023-02-12T05:36:26.716Z,26.85
2023-02-12T05:38:28.516Z,29.08
2023-02-12T05:40:30.244Z,27.30
2023-02-12T05:42:35.107Z,28.42
2023-02-12T05:44:57.507Z,28.38
2023-02-12T05:47:08.008Z,28.77
2023-02-12T05:49:09.852Z,27.75
2023-02-12T05:54:29.505Z,27.00
2023-02-12T05:56:40.365Z,27.20
2023-02-12T06:01:23.604Z,28.40
2023-02-12T06:03:27.804Z,31.15
2023-02-12T06:05:41.171Z,27.75
2023-02-12T06:07:48.672Z,27.98
2023-02-12T06:10:02.613Z,28.30
2023-02-12T06:12:07.317Z,30.17
2023-02-12T06:14:16.769Z,30.23
2023-02-12T06:17:05.242Z,29.58
2023-02-12T06:19:40.017Z,28.40
2023-02-12T06:21:44.645Z,27.90
2023-02-12T06:23:59.312Z,29.70
2023-02-12T06:26:00.943Z,29.67
2023-02-12T06:28:08.781Z,28.77
2023-02-12T06:30:17.581Z,27.33
2023-02-12T06:32:19.276Z,30.10
2023-02-12T06:34:25.941Z,31.10
2023-02-12T06:36:30.518Z,28.83
2023-02-12T06:38:49.277Z,28.50
2023-02-12T06:43:22.075Z,29.10
2023-02-12T06:48:14.952Z,29.52
2023-02-12T06:50:31.344Z,28.27
2023-02-12T06:52:40.302Z,29.17
2023-02-12T06:54:51.041Z,30.45
2023-02-12T06:56:52.597Z,28.15
2023-02-12T06:59:16.279Z,27.85
2023-02-12T07:01:46.965Z,29.17
2023-02-12T07:06:57.970Z,28.75
2023-02-12T07:13:49.913Z,29.70
2023-02-12T07:15:52.423Z,31.20
2023-02-12T07:17:56.421Z,28.48
2023-02-12T07:25:19.800Z,38.45
2023-02-12T07:27:21.454Z,37.90
2023-02-12T07:29:23.049Z,34.38
2023-02-12T07:31:27.157Z,37.92
2023-02-12T07:33:28.809Z,32.35
2023-02-12T07:35:30.350Z,34.00
2023-02-12T07:37:31.972Z,29.25
2023-02-12T07:39:33.529Z,27.58
2023-02-12T07:41:36.845Z,30.52
2023-02-12T07:43:39.184Z,32.42
2023-02-12T07:45:40.883Z,28.00
2023-02-12T07:47:42.513Z,28.48
2023-02-12T07:49:44.138Z,63.60
2023-02-12T07:51:45.777Z,41.40
2023-02-12T07:53:48.671Z,42.30
2023-02-12T07:55:50.244Z,32.58
2023-02-12T07:57:53.206Z,31.77
2023-02-12T07:59:54.991Z,30.13
2023-02-12T08:01:56.869Z,27.20
2023-02-12T08:03:59.933Z,27.08
2023-02-12T08:06:09.960Z,27.48
2023-02-12T08:08:11.547Z,26.33
2023-02-12T08:10:13.222Z,25.60
2023-02-12T08:12:14.818Z,27.45
2023-02-12T08:14:19.442Z,25.75
2023-02-12T08:16:23.143Z,33.88
2023-02-12T08:18:24.718Z,29.60
2023-02-12T08:20:26.452Z,28.42
2023-02-12T08:22:30.471Z,29.85
2023-02-12T08:24:32.384Z,31.08
2023-02-12T08:26:36.409Z,30.95
2023-02-12T08:28:39.627Z,28.85
2023-02-12T08:30:42.582Z,53.60
2023-02-12T08:32:44.154Z,32.72
2023-02-12T08:34:45.686Z,33.90
2023-02-12T08:36:48.562Z,29.38
2023-02-12T08:38:50.535Z,29.67
2023-02-12T08:40:52.125Z,28.80
2023-02-12T08:42:53.743Z,31.02
2023-02-12T08:44:55.350Z,58.58
2023-02-12T08:46:58.436Z,44.35
2023-02-12T08:49:02.968Z,31.73
2023-02-12T08:51:06.889Z,33.15
2023-02-12T08:53:08.421Z,26.75
2023-02-12T08:55:09.960Z,32.58
2023-02-12T08:57:11.535Z,37.28
2023-02-12T08:59:15.338Z,27.05
2023-02-12T09:01:19.023Z,25.25
2023-02-12T09:03:22.391Z,24.90
2023-02-12T09:05:23.910Z,23.05
2023-02-12T09:07:25.544Z,24.35
2023-02-12T09:09:27.801Z,22.25
2023-02-12T09:11:29.449Z,24.50
2023-02-12T09:13:31.020Z,23.88
2023-02-12T09:15:37.191Z,23.67
2023-02-12T09:17:38.800Z,23.75
2023-02-12T09:19:41.751Z,25.42
2023-02-12T09:21:43.360Z,25.58
2023-02-12T09:23:44.931Z,23.52
2023-02-12T09:25:47.201Z,23.42
2023-02-12T09:27:48.816Z,23.27
2023-02-12T09:29:50.423Z,32.10
2023-02-12T09:31:52.082Z,28.08
2023-02-12T09:33:55.571Z,28.95
2023-02-12T09:36:02.470Z,36.67
2023-02-12T09:38:04.327Z,29.65
2023-02-12T09:40:08.283Z,27.92
2023-02-12T09:42:25.357Z,29.45
2023-02-12T09:44:34.052Z,28.92
2023-02-12T09:46:42.601Z,25.40
2023-02-12T09:48:58.122Z,27.35
2023-02-12T09:51:06.657Z,29.48
2023-02-12T09:53:12.690Z,27.70
2023-02-12T09:55:18.171Z,30.02
2023-02-12T09:57:24.794Z,28.60
2023-02-12T09:59:33.378Z,27.80
2023-02-12T10:01:35.852Z,27.08
2023-02-12T10:03:37.472Z,28.48
2023-02-12T10:05:42.725Z,27.60
2023-02-12T10:07:59.330Z,27.35
2023-02-12T10:10:13.764Z,27.33
2023-02-12T10:12:23.591Z,31.08
2023-02-12T10:14:49.418Z,28.27
2023-02-12T10:17:03.697Z,28.75
2023-02-12T10:19:21.003Z,28.73
2023-02-12T10:21:37.105Z,28.10
2023-02-12T10:24:22.466Z,30.00
2023-02-12T10:26:29.257Z,30.67
2023-02-12T10:28:34.544Z,34.10
2023-02-12T10:30:43.578Z,32.25
2023-02-12T10:32:47.641Z,32.97
2023-02-12T10:34:51.006Z,30.77
2023-02-12T10:36:58.055Z,28.98
2023-02-12T10:39:04.675Z,30.15
2023-02-12T10:41:09.513Z,28.80
2023-02-12T10:43:13.163Z,30.67
2023-02-12T10:45:17.089Z,28.30
2023-02-12T10:47:21.492Z,28.88
2023-02-12T10:49:23.417Z,30.17
2023-02-12T10:51:56.291Z,29.48
2023-02-12T10:54:18.073Z,29.73
2023-02-12T10:56:22.530Z,27.40
2023-02-12T10:58:24.297Z,31.80
2023-02-12T11:00:30.676Z,28.25
2023-02-12T11:02:34.038Z,30.83
2023-02-12T11:04:35.668Z,30.40
2023-02-12T11:06:37.400Z,27.88
2023-02-12T11:08:39.321Z,29.65
2023-02-12T11:10:41.924Z,28.63
2023-02-12T11:12:45.163Z,29.30
2023-02-12T11:14:49.857Z,34.33
2023-02-12T11:16:53.828Z,31.42
2023-02-12T11:18:59.397Z,29.17
2023-02-12T11:21:04.451Z,27.50
2023-02-12T11:23:22.527Z,27.98
2023-02-12T11:25:27.779Z,26.05
2023-02-12T11:27:31.068Z,27.05
2023-02-12T11:29:34.029Z,29.65
2023-02-12T11:31:38.700Z,28.40
2023-02-12T11:33:40.416Z,26.35
2023-02-12T11:35:50.700Z,31.02
2023-02-12T11:37:55.647Z,28.35
2023-02-12T11:39:57.405Z,27.75
2023-02-12T11:42:02.398Z,28.00
2023-02-12T11:44:10.284Z,27.75
2023-02-12T11:46:20.935Z,24.60
2023-02-12T11:48:26.105Z,44.15
2023-02-12T11:50:30.270Z,31.70
2023-02-12T11:52:35.426Z,34.85
2023-02-12T11:54:41.784Z,31.38
2023-02-12T11:56:45.347Z,26.70
2023-02-12T11:58:47.583Z,25.67
2023-02-12T12:00:55.508Z,23.67
2023-02-12T12:03:04.595Z,25.08
2023-02-12T12:05:11.853Z,44.67
2023-02-12T12:07:18.961Z,30.67
2023-02-12T12:09:25.197Z,22.00
2023-02-12T12:11:33.722Z,20.10
2023-02-12T12:13:41.338Z,21.35
2023-02-12T12:15:48.242Z,23.60
2023-02-12T12:17:53.415Z,17.63
2023-02-12T12:20:03.071Z,14.68
2023-02-12T12:22:12.768Z,14.60
2023-02-12T12:24:18.483Z,11.63
2023-02-12T12:26:23.550Z,11.68
2023-02-12T12:28:33.066Z,16.00
2023-02-12T12:31:02.317Z,10.57
2023-02-12T12:33:09.039Z,13.65
2023-02-12T12:35:18.426Z,9.68
2023-02-12T12:37:33.803Z,9.40
2023-02-12T12:39:43.249Z,9.65
2023-02-12T12:42:14.510Z,8.70
2023-02-12T12:44:34.495Z,11.18
2023-02-12T12:46:56.316Z,6.40
2023-02-12T12:49:13.907Z,6.78
2023-02-12T12:51:28.982Z,6.45
2023-02-12T12:53:46.442Z,7.35
2023-02-12T12:56:09.445Z,6.20
2023-02-12T12:58:19.809Z,5.77
2023-02-12T13:00:36.999Z,9.00
2023-02-12T13:03:13.410Z,6.10
2023-02-12T13:05:49.718Z,6.13
2023-02-12T13:08:06.652Z,5.70
2023-02-12T13:10:25.139Z,5.17
2023-02-12T13:13:02.689Z,5.50
2023-02-12T13:15:18.165Z,6.77
2023-02-12T13:17:25.688Z,5.33
2023-02-12T13:19:39.819Z,7.20
2023-02-12T13:21:48.561Z,6.20
2023-02-12T13:23:57.402Z,7.93
2023-02-12T13:26:07.590Z,6.07
2023-02-12T13:28:15.368Z,6.90
2023-02-12T13:30:25.571Z,6.50
2023-02-12T13:32:29.481Z,7.40
2023-02-12T13:34:34.565Z,6.93
2023-02-12T13:36:37.894Z,7.20
2023-02-12T13:38:44.132Z,6.40
2023-02-12T13:40:48.456Z,6.63
2023-02-12T13:42:56.644Z,6.63
2023-02-12T13:45:07.690Z,6.45
2023-02-12T13:47:18.630Z,7.40
2023-02-12T13:49:30.589Z,7.20
2023-02-12T13:51:42.604Z,7.68
2023-02-12T13:53:55.615Z,7.20
2023-02-12T13:56:06.964Z,7.85
2023-02-12T13:58:40.154Z,7.63
2023-02-12T14:00:58.331Z,7.90
2023-02-12T14:03:08.395Z,8.10
2023-02-12T14:05:28.554Z,7.90
2023-02-12T14:07:42.593Z,7.95
2023-02-12T14:09:46.619Z,9.77
2023-02-12T14:11:53.304Z,7.53
2023-02-12T14:13:57.623Z,8.18
2023-02-12T14:16:17.822Z,8.10
2023-02-12T14:18:29.514Z,9.25
2023-02-12T14:20:32.512Z,10.63
2023-02-12T14:23:03.964Z,10.17
2023-02-12T14:25:30.947Z,10.40
2023-02-12T14:27:41.924Z,10.00
2023-02-12T14:30:01.489Z,9.77
2023-02-12T14:32:03.363Z,9.30
2023-02-12T14:34:47.599Z,9.40
2023-02-12T14:37:10.305Z,10.85
2023-02-12T14:39:29.880Z,10.18
2023-02-12T14:41:34.480Z,9.85
2023-02-12T14:43:38.450Z,11.00
2023-02-12T14:45:40.089Z,9.67
2023-02-12T14:47:51.281Z,9.77
2023-02-12T14:49:53.907Z,9.13
2023-02-12T14:52:00.114Z,9.73
2023-02-12T14:54:04.487Z,10.65
2023-02-12T14:56:07.364Z,10.07
2023-02-12T14:58:18.418Z,10.20
2023-02-12T15:00:27.235Z,10.68
2023-02-12T15:02:32.807Z,11.17
2023-02-12T15:04:38.214Z,11.10
2023-02-12T15:06:48.852Z,10.43
2023-02-12T15:08:56.162Z,10.70
2023-02-12T15:11:06.752Z,10.38
2023-02-12T15:13:18.325Z,12.07
2023-02-12T15:15:28.549Z,11.00
2023-02-12T15:17:34.747Z,11.80
2023-02-12T15:19:43.185Z,10.07
2023-02-12T15:21:45.062Z,11.00
2023-02-12T15:23:48.346Z,12.23
2023-02-12T15:25:51.131Z,12.10
2023-02-12T15:27:57.267Z,11.73
2023-02-12T15:29:58.861Z,12.73
2023-02-12T15:32:04.847Z,12.55
2023-02-12T15:34:06.850Z,12.90
2023-02-12T15:36:10.807Z,13.65
2023-02-12T15:38:20.972Z,13.45
2023-02-12T15:40:22.919Z,16.35
2023-02-12T15:42:26.953Z,15.25
2023-02-12T15:44:31.232Z,14.10
2023-02-12T15:46:32.895Z,16.20
2023-02-12T15:48:37.005Z,16.47
2023-02-12T15:50:48.966Z,15.48
2023-02-12T15:52:51.714Z,17.15
2023-02-12T15:54:53.361Z,17.05
2023-02-12T15:56:55.483Z,19.03
2023-02-12T15:58:59.230Z,17.60
2023-02-12T16:01:04.204Z,18.30
2023-02-12T16:03:06.216Z,17.07
2023-02-12T16:05:14.604Z,17.53
2023-02-12T16:07:17.885Z,17.80
2023-02-12T16:09:26.489Z,17.37
2023-02-12T16:11:29.605Z,18.20
2023-02-12T16:13:33.851Z,18.20
2023-02-12T16:15:35.582Z,18.33
2023-02-12T16:17:37.391Z,19.80
2023-02-12T16:19:39.280Z,18.00
2023-02-12T16:21:42.377Z,17.58
2023-02-12T16:23:44.638Z,16.55
2023-02-12T16:25:54.209Z,19.10
2023-02-12T16:28:00.908Z,18.70
2023-02-12T16:30:05.883Z,18.63
2023-02-12T16:32:07.559Z,18.00
2023-02-12T16:34:28.188Z,18.38
2023-02-12T16:36:31.814Z,20.55
2023-02-12T16:38:44.419Z,20.05
2023-02-12T16:41:23.688Z,19.60
2023-02-12T16:43:26.804Z,20.48
2023-02-12T16:45:40.508Z,19.83
2023-02-12T16:47:42.153Z,19.08
2023-02-12T16:49:54.116Z,18.33
2023-02-12T16:52:28.232Z,20.20
2023-02-12T16:54:33.477Z,22.85
2023-02-12T16:56:37.919Z,27.83
2023-02-12T16:58:39.534Z,24.80
2023-02-12T17:00:41.284Z,22.67
2023-02-12T17:02:43.162Z,22.38
2023-02-12T17:04:44.739Z,23.07
2023-02-12T17:06:46.340Z,20.60
2023-02-12T17:08:48.249Z,21.83
2023-02-12T17:10:51.501Z,21.00
2023-02-12T17:12:53.142Z,22.73
2023-02-12T17:14:55.098Z,24.35
2023-02-12T17:16:56.633Z,21.92
2023-02-12T17:18:58.616Z,23.70
2023-02-12T17:21:03.689Z,23.00
2023-02-12T17:23:05.882Z,20.05
2023-02-12T17:25:07.512Z,23.00
2023-02-12T17:27:10.690Z,21.98
2023-02-12T17:29:12.393Z,24.63
2023-02-12T17:31:14.579Z,25.52
2023-02-12T17:33:16.716Z,31.10
2023-02-12T17:35:18.821Z,28.00
2023-02-12T17:37:20.409Z,26.02
2023-02-12T17:39:21.969Z,29.40
2023-02-12T17:41:23.734Z,27.98
2023-02-12T17:43:26.729Z,26.58
2023-02-12T17:45:28.381Z,28.83
2023-02-12T17:47:29.953Z,26.60
2023-02-12T17:49:31.500Z,25.52
2023-02-12T17:51:33.251Z,26.33
2023-02-12T17:53:34.930Z,23.85
2023-02-12T17:55:38.325Z,22.98
2023-02-12T17:57:39.959Z,22.80
2023-02-12T17:59:43.305Z,22.45
2023-02-12T18:01:44.858Z,22.60
2023-02-12T18:03:46.601Z,24.13
2023-02-12T18:05:48.371Z,23.83
2023-02-12T18:07:50.263Z,26.13
2023-02-12T18:09:51.877Z,26.10
2023-02-12T18:11:53.797Z,24.25
2023-02-12T18:13:58.882Z,23.65
2023-02-12T18:16:02.266Z,29.33
2023-02-12T18:18:03.976Z,25.30
2023-02-12T18:20:07.111Z,25.95
2023-02-12T18:22:08.775Z,25.27
2023-02-12T18:24:10.853Z,22.65
2023-02-12T18:26:14.505Z,22.50
2023-02-12T18:28:16.328Z,25.17
2023-02-12T18:30:18.496Z,25.48
2023-02-12T18:32:21.511Z,25.67
2023-02-12T18:34:23.084Z,26.60
2023-02-12T18:36:24.686Z,28.08
2023-02-12T18:38:26.878Z,25.10
2023-02-12T18:40:28.626Z,26.80
2023-02-12T18:42:30.868Z,24.42
2023-02-12T18:44:32.474Z,24.60
2023-02-12T18:46:34.101Z,24.50
2023-02-12T18:48:37.191Z,25.80
2023-02-12T18:50:38.834Z,24.88
2023-02-12T18:52:40.396Z,29.40
2023-02-12T18:54:42.064Z,28.23
2023-02-12T18:56:45.345Z,28.27
2023-02-12T18:58:46.923Z,34.25
2023-02-12T19:00:49.071Z,36.22
2023-02-12T19:02:50.672Z,35.15
2023-02-12T19:04:53.757Z,39.53
2023-02-12T19:06:55.886Z,37.75
2023-02-12T19:08:59.062Z,39.85
2023-02-12T19:11:00.665Z,34.67
2023-02-12T19:13:02.300Z,35.55
2023-02-12T19:15:04.534Z,35.45
2023-02-12T19:17:06.093Z,33.05
2023-02-12T19:19:08.217Z,29.90
2023-02-12T19:21:13.867Z,29.38
2023-02-12T19:23:15.644Z,28.15
2023-02-12T19:25:17.323Z,29.10
2023-02-12T19:27:19.027Z,29.10
2023-02-12T19:29:20.632Z,30.73
2023-02-12T19:31:24.657Z,32.67
2023-02-12T19:33:26.253Z,32.85
2023-02-12T19:35:28.072Z,32.72
2023-02-12T19:37:31.073Z,33.13
2023-02-12T19:39:32.655Z,33.05
2023-02-12T19:41:35.391Z,34.33
2023-02-12T19:43:38.083Z,32.50
2023-02-12T19:45:39.629Z,29.48
2023-02-12T19:47:41.215Z,33.17
2023-02-12T19:49:43.120Z,30.38
2023-02-12T19:51:45.086Z,27.52
2023-02-12T19:53:48.600Z,31.58
2023-02-12T19:55:50.257Z,39.97
2023-02-12T19:57:51.785Z,27.65
2023-02-12T19:59:53.440Z,25.15
2023-02-12T20:01:54.991Z,25.67
2023-02-12T20:03:57.942Z,25.48
2023-02-12T20:06:01.387Z,25.83
2023-02-12T20:08:03.060Z,26.05
2023-02-12T20:10:07.600Z,24.75
2023-02-12T20:12:09.209Z,25.25
2023-02-12T20:14:12.525Z,23.65
2023-02-12T20:16:17.599Z,22.77
2023-02-12T20:18:19.316Z,22.35
2023-02-12T20:20:21.036Z,22.35
2023-02-12T20:22:24.605Z,21.70
2023-02-12T20:24:28.048Z,21.48
2023-02-12T20:26:32.961Z,20.90
2023-02-12T20:28:35.620Z,22.20
2023-02-12T20:30:39.691Z,23.20
2023-02-12T20:32:41.513Z,19.73
2023-02-12T20:34:50.836Z,17.85
2023-02-12T20:36:52.892Z,19.23
2023-02-12T20:38:55.745Z,18.38
2023-02-12T20:41:00.152Z,17.65
2023-02-12T20:43:03.207Z,17.63
2023-02-12T20:45:08.075Z,16.75
2023-02-12T20:47:09.691Z,18.60
2023-02-12T20:49:12.487Z,17.55
2023-02-12T20:51:16.345Z,18.67
2023-02-12T20:53:17.899Z,17.35
2023-02-12T20:55:19.673Z,16.73
2023-02-12T20:57:21.216Z,17.60
2023-02-12T20:59:24.149Z,16.40
2023-02-12T21:01:27.754Z,37.20
2023-02-12T21:03:29.430Z,17.50
2023-02-12T21:05:31.103Z,27.50
2023-02-12T21:07:32.717Z,21.52
2023-02-12T21:09:34.277Z,35.55
2023-02-12T21:11:36.415Z,25.40
2023-02-12T21:13:38.243Z,36.00
2023-02-12T21:15:42.466Z,29.15
2023-02-12T21:17:44.119Z,31.90
2023-02-12T21:19:45.947Z,31.85
2023-02-12T21:21:47.562Z,24.02
2023-02-12T21:23:49.194Z,29.60
2023-02-12T21:25:58.311Z,28.13
2023-02-12T21:27:59.961Z,26.25
2023-02-12T21:30:01.528Z,27.80
2023-02-12T21:32:04.895Z,27.55
2023-02-12T21:34:08.046Z,30.40
2023-02-12T21:36:12.885Z,29.60
2023-02-12T21:38:14.660Z,30.25
2023-02-12T21:40:16.687Z,31.02
2023-02-12T21:42:18.580Z,23.80
2023-02-12T21:44:21.053Z,21.48
2023-02-12T21:46:23.066Z,24.58
2023-02-12T21:48:26.038Z,24.38
2023-02-12T21:50:27.641Z,21.80
2023-02-12T21:52:29.245Z,22.92
2023-02-12T21:54:31.504Z,18.30
2023-02-12T21:56:33.612Z,19.27
2023-02-12T21:58:35.225Z,18.65
2023-02-12T22:00:37.003Z,16.98
2023-02-12T22:02:38.621Z,15.80
2023-02-12T22:04:41.576Z,14.73
2023-02-12T22:06:45.017Z,14.23
2023-02-12T22:08:47.047Z,15.13
2023-02-12T22:10:48.641Z,16.33
2023-02-12T22:12:50.280Z,14.30
2023-02-12T22:14:51.879Z,14.30
2023-02-12T22:16:53.688Z,16.25
2023-02-12T22:18:57.774Z,16.20
2023-02-12T22:21:02.031Z,17.35
2023-02-12T22:23:03.830Z,16.27
2023-02-12T22:25:06.378Z,18.83
2023-02-12T22:27:07.998Z,14.13
2023-02-12T22:29:12.096Z,16.38
2023-02-12T22:31:17.240Z,14.27
2023-02-12T22:33:18.946Z,15.23
2023-02-12T22:35:20.620Z,12.45
2023-02-12T22:37:23.616Z,12.13
2023-02-12T22:39:26.864Z,13.40
2023-02-12T22:41:29.143Z,12.73
2023-02-12T22:43:32.048Z,12.80
2023-02-12T22:45:33.690Z,14.45
2023-02-12T22:47:35.501Z,13.23
2023-02-12T22:49:37.059Z,12.52
2023-02-12T22:51:39.601Z,15.30
2023-02-12T22:53:42.837Z,14.93
2023-02-12T22:55:44.403Z,13.82
2023-02-12T22:57:46.306Z,14.23
2023-02-12T22:59:48.210Z,13.10
2023-02-12T23:01:49.755Z,14.63
2023-02-12T23:03:51.771Z,14.80
2023-02-12T23:05:53.771Z,12.60
2023-02-12T23:07:55.330Z,11.70
2023-02-12T23:09:58.346Z,13.77
2023-02-12T23:11:59.961Z,12.02
2023-02-12T23:14:01.661Z,13.07
2023-02-12T23:16:04.041Z,14.00
2023-02-12T23:18:05.664Z,14.73
2023-02-12T23:20:08.254Z,14.65
2023-02-12T23:22:10.000Z,13.70
2023-02-12T23:24:13.714Z,13.30
2023-02-12T23:26:16.728Z,12.07
2023-02-12T23:28:18.562Z,14.80
2023-02-12T23:30:20.571Z,14.35
2023-02-12T23:32:22.330Z,15.23
2023-02-12T23:34:23.931Z,14.85
2023-02-12T23:36:25.475Z,14.50
2023-02-12T23:38:27.002Z,14.18
2023-02-12T23:40:28.629Z,13.68
2023-02-12T23:42:31.491Z,16.02
2023-02-12T23:44:33.127Z,14.63
2023-02-12T23:46:34.799Z,14.55
2023-02-12T23:48:36.442Z,16.45
2023-02-12T23:50:38.040Z,14.60
2023-02-12T23:52:41.499Z,14.10
2023-02-12T23:54:43.213Z,16.40
2023-02-12T23:56:44.850Z,14.68
2023-02-12T23:58:47.768Z,14.43
